sensor_id;sensor_type;location;lat;lon;timestamp;temperature;humidity
37560;DHT22;23398;50.928;7.084;2022-08-19T00:01:42;20.70;71.50
37560;DHT22;23398;50.928;7.084;2022-08-19T00:04:09;20.60;71.70
37560;DHT22;23398;50.928;7.084;2022-08-19T00:06:38;20.60;71.90
37560;DHT22;23398;50.928;7.084;2022-08-19T00:09:06;20.50;72.00
37560;DHT22;23398;50.928;7.084;2022-08-19T00:11:32;20.50;72.70
37560;DHT22;23398;50.928;7.084;2022-08-19T00:13:58;20.60;72.90
37560;DHT22;23398;50.928;7.084;2022-08-19T00:16:24;20.40;72.30
37560;DHT22;23398;50.928;7.084;2022-08-19T00:18:50;20.50;72.80
37560;DHT22;23398;50.928;7.084;2022-08-19T00:21:16;20.30;72.70
37560;DHT22;23398;50.928;7.084;2022-08-19T00:23:43;20.30;73.60
37560;DHT22;23398;50.928;7.084;2022-08-19T00:26:10;20.30;72.50
37560;DHT22;23398;50.928;7.084;2022-08-19T00:28:36;20.30;72.30
37560;DHT22;23398;50.928;7.084;2022-08-19T00:31:03;20.20;72.10
37560;DHT22;23398;50.928;7.084;2022-08-19T00:33:30;20.20;72.30
37560;DHT22;23398;50.928;7.084;2022-08-19T00:36:03;20.10;72.60
37560;DHT22;23398;50.928;7.084;2022-08-19T00:38:30;20.10;72.80
37560;DHT22;23398;50.928;7.084;2022-08-19T00:40:57;20.10;72.70
37560;DHT22;23398;50.928;7.084;2022-08-19T00:43:24;20.00;72.70
37560;DHT22;23398;50.928;7.084;2022-08-19T00:45:51;20.00;73.00
37560;DHT22;23398;50.928;7.084;2022-08-19T00:48:17;20.00;73.20
37560;DHT22;23398;50.928;7.084;2022-08-19T00:50:44;20.00;74.00
37560;DHT22;23398;50.928;7.084;2022-08-19T00:53:16;19.90;74.30
37560;DHT22;23398;50.928;7.084;2022-08-19T00:55:45;19.80;74.00
37560;DHT22;23398;50.928;7.084;2022-08-19T00:58:14;19.80;73.90
37560;DHT22;23398;50.928;7.084;2022-08-19T01:00:40;19.80;74.00
37560;DHT22;23398;50.928;7.084;2022-08-19T01:03:10;19.70;74.20
37560;DHT22;23398;50.928;7.084;2022-08-19T01:05:37;19.70;74.00
37560;DHT22;23398;50.928;7.084;2022-08-19T01:08:06;19.70;74.50
37560;DHT22;23398;50.928;7.084;2022-08-19T01:10:39;19.70;74.50
37560;DHT22;23398;50.928;7.084;2022-08-19T01:13:05;19.60;74.30
37560;DHT22;23398;50.928;7.084;2022-08-19T01:15:35;19.60;74.70
37560;DHT22;23398;50.928;7.084;2022-08-19T01:18:09;19.60;75.00
37560;DHT22;23398;50.928;7.084;2022-08-19T01:20:36;19.50;75.10
37560;DHT22;23398;50.928;7.084;2022-08-19T01:23:02;19.50;75.10
37560;DHT22;23398;50.928;7.084;2022-08-19T01:25:38;19.50;74.90
37560;DHT22;23398;50.928;7.084;2022-08-19T01:28:04;19.50;75.20
37560;DHT22;23398;50.928;7.084;2022-08-19T01:30:32;19.50;75.10
37560;DHT22;23398;50.928;7.084;2022-08-19T01:32:59;19.40;75.20
37560;DHT22;23398;50.928;7.084;2022-08-19T01:35:27;19.40;75.50
37560;DHT22;23398;50.928;7.084;2022-08-19T01:37:58;19.40;75.80
37560;DHT22;23398;50.928;7.084;2022-08-19T01:40:28;19.40;76.00
37560;DHT22;23398;50.928;7.084;2022-08-19T01:42:54;19.40;75.70
37560;DHT22;23398;50.928;7.084;2022-08-19T01:45:23;19.40;75.60
37560;DHT22;23398;50.928;7.084;2022-08-19T01:47:49;19.30;75.90
37560;DHT22;23398;50.928;7.084;2022-08-19T01:50:15;19.30;76.40
37560;DHT22;23398;50.928;7.084;2022-08-19T01:52:42;19.30;76.60
37560;DHT22;23398;50.928;7.084;2022-08-19T01:55:12;19.20;76.70
37560;DHT22;23398;50.928;7.084;2022-08-19T01:57:39;19.20;76.90
37560;DHT22;23398;50.928;7.084;2022-08-19T02:00:10;19.20;77.10
37560;DHT22;23398;50.928;7.084;2022-08-19T02:02:37;19.20;77.00
37560;DHT22;23398;50.928;7.084;2022-08-19T02:05:04;19.20;76.70
37560;DHT22;23398;50.928;7.084;2022-08-19T02:07:32;19.30;76.70
37560;DHT22;23398;50.928;7.084;2022-08-19T02:09:58;19.20;77.10
37560;DHT22;23398;50.928;7.084;2022-08-19T02:12:23;19.20;77.00
37560;DHT22;23398;50.928;7.084;2022-08-19T02:14:49;19.30;76.90
37560;DHT22;23398;50.928;7.084;2022-08-19T02:17:15;19.20;76.80
37560;DHT22;23398;50.928;7.084;2022-08-19T02:19:40;19.20;76.70
37560;DHT22;23398;50.928;7.084;2022-08-19T02:22:06;19.20;76.70
37560;DHT22;23398;50.928;7.084;2022-08-19T02:24:32;19.20;76.60
37560;DHT22;23398;50.928;7.084;2022-08-19T02:26:58;19.20;76.60
37560;DHT22;23398;50.928;7.084;2022-08-19T02:29:24;19.10;76.50
37560;DHT22;23398;50.928;7.084;2022-08-19T02:31:49;19.10;76.50
37560;DHT22;23398;50.928;7.084;2022-08-19T02:34:16;19.10;76.60
37560;DHT22;23398;50.928;7.084;2022-08-19T02:36:42;19.20;77.00
37560;DHT22;23398;50.928;7.084;2022-08-19T02:39:07;19.10;77.10
37560;DHT22;23398;50.928;7.084;2022-08-19T02:41:33;19.10;77.50
37560;DHT22;23398;50.928;7.084;2022-08-19T02:44:01;19.10;77.60
37560;DHT22;23398;50.928;7.084;2022-08-19T02:46:31;19.10;77.70
37560;DHT22;23398;50.928;7.084;2022-08-19T02:49:01;19.10;77.80
37560;DHT22;23398;50.928;7.084;2022-08-19T02:51:43;19.00;77.80
37560;DHT22;23398;50.928;7.084;2022-08-19T02:54:11;19.00;78.20
37560;DHT22;23398;50.928;7.084;2022-08-19T02:56:38;19.00;77.70
37560;DHT22;23398;50.928;7.084;2022-08-19T02:59:05;19.10;77.80
37560;DHT22;23398;50.928;7.084;2022-08-19T03:01:36;19.00;77.90
37560;DHT22;23398;50.928;7.084;2022-08-19T03:04:05;19.00;78.00
37560;DHT22;23398;50.928;7.084;2022-08-19T03:06:31;19.00;78.30
37560;DHT22;23398;50.928;7.084;2022-08-19T03:08:57;19.00;78.30
37560;DHT22;23398;50.928;7.084;2022-08-19T03:11:29;19.00;78.50
37560;DHT22;23398;50.928;7.084;2022-08-19T03:13:55;19.00;78.80
37560;DHT22;23398;50.928;7.084;2022-08-19T03:16:23;19.00;78.40
37560;DHT22;23398;50.928;7.084;2022-08-19T03:18:49;19.00;78.30
37560;DHT22;23398;50.928;7.084;2022-08-19T03:21:24;19.00;78.30
37560;DHT22;23398;50.928;7.084;2022-08-19T03:23:53;19.00;78.40
37560;DHT22;23398;50.928;7.084;2022-08-19T03:26:18;19.00;78.00
37560;DHT22;23398;50.928;7.084;2022-08-19T03:28:45;19.00;78.30
37560;DHT22;23398;50.928;7.084;2022-08-19T03:31:18;18.90;78.30
37560;DHT22;23398;50.928;7.084;2022-08-19T03:33:44;18.90;78.60
37560;DHT22;23398;50.928;7.084;2022-08-19T03:36:16;18.90;78.80
37560;DHT22;23398;50.928;7.084;2022-08-19T03:38:48;18.90;79.10
37560;DHT22;23398;50.928;7.084;2022-08-19T03:41:36;18.90;79.10
37560;DHT22;23398;50.928;7.084;2022-08-19T03:44:03;18.90;79.10
37560;DHT22;23398;50.928;7.084;2022-08-19T03:46:31;18.90;79.00
37560;DHT22;23398;50.928;7.084;2022-08-19T03:48:59;18.80;79.00
37560;DHT22;23398;50.928;7.084;2022-08-19T03:51:37;18.80;78.80
37560;DHT22;23398;50.928;7.084;2022-08-19T03:54:07;18.80;79.00
37560;DHT22;23398;50.928;7.084;2022-08-19T03:56:37;18.80;78.70
37560;DHT22;23398;50.928;7.084;2022-08-19T03:59:05;18.80;79.00
37560;DHT22;23398;50.928;7.084;2022-08-19T04:01:31;18.80;79.10
37560;DHT22;23398;50.928;7.084;2022-08-19T04:03:58;18.70;79.10
37560;DHT22;23398;50.928;7.084;2022-08-19T04:06:29;18.70;79.10
37560;DHT22;23398;50.928;7.084;2022-08-19T04:08:57;18.80;79.30
37560;DHT22;23398;50.928;7.084;2022-08-19T04:11:50;18.80;79.40
37560;DHT22;23398;50.928;7.084;2022-08-19T04:14:21;18.70;80.00
37560;DHT22;23398;50.928;7.084;2022-08-19T04:16:48;18.70;79.50
37560;DHT22;23398;50.928;7.084;2022-08-19T04:19:16;18.70;79.50
37560;DHT22;23398;50.928;7.084;2022-08-19T04:21:48;18.60;79.50
37560;DHT22;23398;50.928;7.084;2022-08-19T04:24:15;18.60;78.80
37560;DHT22;23398;50.928;7.084;2022-08-19T04:26:41;18.60;78.50
37560;DHT22;23398;50.928;7.084;2022-08-19T04:29:16;18.70;78.60
37560;DHT22;23398;50.928;7.084;2022-08-19T04:31:43;18.60;78.90
37560;DHT22;23398;50.928;7.084;2022-08-19T04:34:12;18.60;79.40
37560;DHT22;23398;50.928;7.084;2022-08-19T04:36:39;18.60;79.80
37560;DHT22;23398;50.928;7.084;2022-08-19T04:39:09;18.60;80.10
37560;DHT22;23398;50.928;7.084;2022-08-19T04:41:36;18.60;80.50
37560;DHT22;23398;50.928;7.084;2022-08-19T04:44:20;18.70;80.70
37560;DHT22;23398;50.928;7.084;2022-08-19T04:46:47;18.70;80.80
37560;DHT22;23398;50.928;7.084;2022-08-19T04:49:14;18.80;81.10
37560;DHT22;23398;50.928;7.084;2022-08-19T04:51:42;18.80;81.00
37560;DHT22;23398;50.928;7.084;2022-08-19T04:54:09;18.90;80.70
37560;DHT22;23398;50.928;7.084;2022-08-19T04:56:34;18.90;80.60
37560;DHT22;23398;50.928;7.084;2022-08-19T04:59:00;19.00;80.50
37560;DHT22;23398;50.928;7.084;2022-08-19T05:01:31;19.10;80.50
37560;DHT22;23398;50.928;7.084;2022-08-19T05:04:02;19.10;80.20
37560;DHT22;23398;50.928;7.084;2022-08-19T05:06:29;19.10;80.10
37560;DHT22;23398;50.928;7.084;2022-08-19T05:08:59;19.10;79.90
37560;DHT22;23398;50.928;7.084;2022-08-19T05:11:27;19.20;79.90
37560;DHT22;23398;50.928;7.084;2022-08-19T05:13:54;19.20;80.00
37560;DHT22;23398;50.928;7.084;2022-08-19T05:16:21;19.20;80.00
37560;DHT22;23398;50.928;7.084;2022-08-19T05:18:48;19.30;79.90
37560;DHT22;23398;50.928;7.084;2022-08-19T05:21:33;19.30;79.80
37560;DHT22;23398;50.928;7.084;2022-08-19T05:24:18;19.30;79.60
37560;DHT22;23398;50.928;7.084;2022-08-19T05:26:47;19.40;79.70
37560;DHT22;23398;50.928;7.084;2022-08-19T05:29:19;19.40;79.70
37560;DHT22;23398;50.928;7.084;2022-08-19T05:31:45;19.50;80.00
37560;DHT22;23398;50.928;7.084;2022-08-19T05:34:12;19.50;79.70
37560;DHT22;23398;50.928;7.084;2022-08-19T05:36:40;19.60;79.70
37560;DHT22;23398;50.928;7.084;2022-08-19T05:39:07;19.70;79.60
37560;DHT22;23398;50.928;7.084;2022-08-19T05:41:33;19.70;79.50
37560;DHT22;23398;50.928;7.084;2022-08-19T05:44:04;19.70;79.40
37560;DHT22;23398;50.928;7.084;2022-08-19T05:46:32;19.80;79.60
37560;DHT22;23398;50.928;7.084;2022-08-19T05:48:58;19.90;79.50
37560;DHT22;23398;50.928;7.084;2022-08-19T05:51:24;19.90;79.40
37560;DHT22;23398;50.928;7.084;2022-08-19T05:53:50;19.90;79.20
37560;DHT22;23398;50.928;7.084;2022-08-19T05:56:17;20.00;79.10
37560;DHT22;23398;50.928;7.084;2022-08-19T05:58:44;20.10;79.00
37560;DHT22;23398;50.928;7.084;2022-08-19T06:01:14;20.20;79.00
37560;DHT22;23398;50.928;7.084;2022-08-19T06:03:40;20.20;78.80
37560;DHT22;23398;50.928;7.084;2022-08-19T06:06:08;20.40;79.00
37560;DHT22;23398;50.928;7.084;2022-08-19T06:08:35;20.40;78.70
37560;DHT22;23398;50.928;7.084;2022-08-19T06:13:46;20.60;78.50
37560;DHT22;23398;50.928;7.084;2022-08-19T06:16:17;20.70;79.10
37560;DHT22;23398;50.928;7.084;2022-08-19T06:18:53;20.90;78.20
37560;DHT22;23398;50.928;7.084;2022-08-19T06:21:23;21.00;78.00
37560;DHT22;23398;50.928;7.084;2022-08-19T06:23:50;21.20;78.00
37560;DHT22;23398;50.928;7.084;2022-08-19T06:26:18;21.20;78.00
37560;DHT22;23398;50.928;7.084;2022-08-19T06:28:45;21.40;78.00
37560;DHT22;23398;50.928;7.084;2022-08-19T06:31:19;21.60;77.90
37560;DHT22;23398;50.928;7.084;2022-08-19T06:33:46;21.70;77.60
37560;DHT22;23398;50.928;7.084;2022-08-19T06:36:25;22.00;77.40
37560;DHT22;23398;50.928;7.084;2022-08-19T06:38:55;22.20;76.80
37560;DHT22;23398;50.928;7.084;2022-08-19T06:41:23;22.40;76.50
37560;DHT22;23398;50.928;7.084;2022-08-19T06:43:49;22.60;76.30
37560;DHT22;23398;50.928;7.084;2022-08-19T06:46:17;22.80;76.00
37560;DHT22;23398;50.928;7.084;2022-08-19T06:48:44;23.10;75.70
37560;DHT22;23398;50.928;7.084;2022-08-19T06:51:09;23.30;75.20
37560;DHT22;23398;50.928;7.084;2022-08-19T06:53:35;23.50;74.80
37560;DHT22;23398;50.928;7.084;2022-08-19T06:56:01;23.70;75.00
37560;DHT22;23398;50.928;7.084;2022-08-19T06:58:28;24.00;74.80
37560;DHT22;23398;50.928;7.084;2022-08-19T07:01:06;24.30;74.00
37560;DHT22;23398;50.928;7.084;2022-08-19T07:03:33;24.60;74.50
37560;DHT22;23398;50.928;7.084;2022-08-19T07:06:15;25.00;75.20
37560;DHT22;23398;50.928;7.084;2022-08-19T07:08:44;25.40;74.70
37560;DHT22;23398;50.928;7.084;2022-08-19T07:11:12;25.80;75.00
37560;DHT22;23398;50.928;7.084;2022-08-19T07:13:39;26.30;73.30
37560;DHT22;23398;50.928;7.084;2022-08-19T07:16:10;26.80;71.90
37560;DHT22;23398;50.928;7.084;2022-08-19T07:18:36;27.30;70.50
37560;DHT22;23398;50.928;7.084;2022-08-19T07:21:07;27.70;68.90
37560;DHT22;23398;50.928;7.084;2022-08-19T07:23:33;28.10;67.20
37560;DHT22;23398;50.928;7.084;2022-08-19T07:26:08;28.50;66.30
37560;DHT22;23398;50.928;7.084;2022-08-19T07:28:34;28.80;65.20
37560;DHT22;23398;50.928;7.084;2022-08-19T07:31:00;29.20;63.40
37560;DHT22;23398;50.928;7.084;2022-08-19T07:33:27;29.50;62.60
37560;DHT22;23398;50.928;7.084;2022-08-19T07:35:55;29.70;61.50
37560;DHT22;23398;50.928;7.084;2022-08-19T07:38:21;30.00;60.70
37560;DHT22;23398;50.928;7.084;2022-08-19T07:40:46;30.20;60.30
37560;DHT22;23398;50.928;7.084;2022-08-19T07:43:12;30.40;59.60
37560;DHT22;23398;50.928;7.084;2022-08-19T07:45:38;30.50;59.20
37560;DHT22;23398;50.928;7.084;2022-08-19T07:48:03;30.70;58.50
37560;DHT22;23398;50.928;7.084;2022-08-19T07:50:29;30.80;58.20
37560;DHT22;23398;50.928;7.084;2022-08-19T07:52:55;31.00;58.00
37560;DHT22;23398;50.928;7.084;2022-08-19T07:55:26;31.20;57.80
37560;DHT22;23398;50.928;7.084;2022-08-19T07:57:51;31.40;57.30
37560;DHT22;23398;50.928;7.084;2022-08-19T08:00:18;31.70;56.70
37560;DHT22;23398;50.928;7.084;2022-08-19T08:02:44;32.00;56.10
37560;DHT22;23398;50.928;7.084;2022-08-19T08:05:10;32.20;55.60
37560;DHT22;23398;50.928;7.084;2022-08-19T08:07:55;32.60;56.00
37560;DHT22;23398;50.928;7.084;2022-08-19T08:10:39;32.90;54.40
37560;DHT22;23398;50.928;7.084;2022-08-19T08:13:05;33.30;53.60
37560;DHT22;23398;50.928;7.084;2022-08-19T08:15:31;33.70;52.80
37560;DHT22;23398;50.928;7.084;2022-08-19T08:17:57;33.80;52.10
37560;DHT22;23398;50.928;7.084;2022-08-19T08:20:23;34.10;51.50
37560;DHT22;23398;50.928;7.084;2022-08-19T08:22:49;34.30;50.80
37560;DHT22;23398;50.928;7.084;2022-08-19T08:25:35;34.40;50.20
37560;DHT22;23398;50.928;7.084;2022-08-19T08:28:02;34.60;49.50
37560;DHT22;23398;50.928;7.084;2022-08-19T08:30:29;34.70;48.80
37560;DHT22;23398;50.928;7.084;2022-08-19T08:32:57;34.80;48.50
37560;DHT22;23398;50.928;7.084;2022-08-19T08:35:24;34.80;48.20
37560;DHT22;23398;50.928;7.084;2022-08-19T08:37:52;34.90;47.80
37560;DHT22;23398;50.928;7.084;2022-08-19T08:40:44;35.00;47.80
37560;DHT22;23398;50.928;7.084;2022-08-19T08:43:30;35.10;48.00
37560;DHT22;23398;50.928;7.084;2022-08-19T08:46:44;35.30;48.20
37560;DHT22;23398;50.928;7.084;2022-08-19T08:51:48;36.10;47.40
37560;DHT22;23398;50.928;7.084;2022-08-19T08:54:20;36.50;46.80
37560;DHT22;23398;50.928;7.084;2022-08-19T08:56:49;37.20;46.20
37560;DHT22;23398;50.928;7.084;2022-08-19T08:59:28;37.80;45.00
37560;DHT22;23398;50.928;7.084;2022-08-19T09:01:56;38.60;44.50
37560;DHT22;23398;50.928;7.084;2022-08-19T09:04:21;39.30;43.00
37560;DHT22;23398;50.928;7.084;2022-08-19T09:09:42;40.60;41.60
37560;DHT22;23398;50.928;7.084;2022-08-19T09:15:09;41.70;40.10
37560;DHT22;23398;50.928;7.084;2022-08-19T09:17:36;42.20;37.90
37560;DHT22;23398;50.928;7.084;2022-08-19T09:22:33;42.80;36.30
37560;DHT22;23398;50.928;7.084;2022-08-19T09:24:59;43.10;36.00
37560;DHT22;23398;50.928;7.084;2022-08-19T09:27:26;43.40;35.70
37560;DHT22;23398;50.928;7.084;2022-08-19T09:29:53;43.70;35.50
37560;DHT22;23398;50.928;7.084;2022-08-19T09:32:20;44.10;35.40
37560;DHT22;23398;50.928;7.084;2022-08-19T09:34:46;44.50;34.60
37560;DHT22;23398;50.928;7.084;2022-08-19T09:37:12;44.90;34.00
37560;DHT22;23398;50.928;7.084;2022-08-19T09:39:39;45.40;33.10
37560;DHT22;23398;50.928;7.084;2022-08-19T09:42:07;45.80;32.40
37560;DHT22;23398;50.928;7.084;2022-08-19T09:44:40;46.20;31.50
37560;DHT22;23398;50.928;7.084;2022-08-19T09:47:07;46.30;30.50
37560;DHT22;23398;50.928;7.084;2022-08-19T09:49:34;46.50;30.70
37560;DHT22;23398;50.928;7.084;2022-08-19T09:51:59;46.60;30.60
37560;DHT22;23398;50.928;7.084;2022-08-19T09:54:25;46.80;30.40
37560;DHT22;23398;50.928;7.084;2022-08-19T09:56:52;47.10;29.90
37560;DHT22;23398;50.928;7.084;2022-08-19T09:59:18;47.40;29.10
37560;DHT22;23398;50.928;7.084;2022-08-19T10:01:43;47.50;28.60
37560;DHT22;23398;50.928;7.084;2022-08-19T10:04:09;47.40;28.50
37560;DHT22;23398;50.928;7.084;2022-08-19T10:06:37;47.40;28.20
37560;DHT22;23398;50.928;7.084;2022-08-19T10:09:06;47.20;28.60
37560;DHT22;23398;50.928;7.084;2022-08-19T10:11:33;47.10;28.10
37560;DHT22;23398;50.928;7.084;2022-08-19T10:13:59;47.10;28.20
37560;DHT22;23398;50.928;7.084;2022-08-19T10:16:25;46.90;28.00
37560;DHT22;23398;50.928;7.084;2022-08-19T10:18:52;46.80;28.20
37560;DHT22;23398;50.928;7.084;2022-08-19T10:21:27;46.70;28.00
37560;DHT22;23398;50.928;7.084;2022-08-19T10:23:55;46.60;28.00
37560;DHT22;23398;50.928;7.084;2022-08-19T10:26:25;46.60;27.90
37560;DHT22;23398;50.928;7.084;2022-08-19T10:28:51;46.50;28.40
37560;DHT22;23398;50.928;7.084;2022-08-19T10:31:37;46.60;27.90
37560;DHT22;23398;50.928;7.084;2022-08-19T10:34:02;46.60;28.50
37560;DHT22;23398;50.928;7.084;2022-08-19T10:36:34;46.60;27.70
37560;DHT22;23398;50.928;7.084;2022-08-19T10:39:06;46.50;27.90
37560;DHT22;23398;50.928;7.084;2022-08-19T10:41:34;46.30;28.10
37560;DHT22;23398;50.928;7.084;2022-08-19T10:44:07;46.00;28.00
37560;DHT22;23398;50.928;7.084;2022-08-19T10:46:36;45.60;27.90
37560;DHT22;23398;50.928;7.084;2022-08-19T10:49:04;45.20;27.80
37560;DHT22;23398;50.928;7.084;2022-08-19T10:51:31;44.60;27.90
37560;DHT22;23398;50.928;7.084;2022-08-19T10:54:16;43.90;28.40
37560;DHT22;23398;50.928;7.084;2022-08-19T10:56:42;43.20;29.20
37560;DHT22;23398;50.928;7.084;2022-08-19T10:59:25;42.50;29.50
37560;DHT22;23398;50.928;7.084;2022-08-19T11:01:53;41.80;30.00
37560;DHT22;23398;50.928;7.084;2022-08-19T11:04:20;41.10;30.20
37560;DHT22;23398;50.928;7.084;2022-08-19T11:06:48;40.60;31.30
37560;DHT22;23398;50.928;7.084;2022-08-19T11:09:19;40.00;32.30
37560;DHT22;23398;50.928;7.084;2022-08-19T11:11:46;39.50;32.90
37560;DHT22;23398;50.928;7.084;2022-08-19T11:14:15;39.00;33.20
37560;DHT22;23398;50.928;7.084;2022-08-19T11:16:42;38.60;33.50
37560;DHT22;23398;50.928;7.084;2022-08-19T11:19:10;38.20;34.00
37560;DHT22;23398;50.928;7.084;2022-08-19T11:21:41;37.80;34.50
37560;DHT22;23398;50.928;7.084;2022-08-19T11:24:13;37.40;35.20
37560;DHT22;23398;50.928;7.084;2022-08-19T11:26:41;37.00;35.90
37560;DHT22;23398;50.928;7.084;2022-08-19T11:29:08;36.80;36.50
37560;DHT22;23398;50.928;7.084;2022-08-19T11:31:39;36.60;36.10
37560;DHT22;23398;50.928;7.084;2022-08-19T11:34:08;36.50;37.40
37560;DHT22;23398;50.928;7.084;2022-08-19T11:36:36;36.40;37.20
37560;DHT22;23398;50.928;7.084;2022-08-19T11:39:05;36.30;36.80
37560;DHT22;23398;50.928;7.084;2022-08-19T11:41:31;36.20;36.80
37560;DHT22;23398;50.928;7.084;2022-08-19T11:43:57;36.00;37.10
37560;DHT22;23398;50.928;7.084;2022-08-19T11:46:24;35.80;37.30
37560;DHT22;23398;50.928;7.084;2022-08-19T11:48:50;35.60;37.50
37560;DHT22;23398;50.928;7.084;2022-08-19T11:51:19;35.30;37.80
37560;DHT22;23398;50.928;7.084;2022-08-19T11:53:45;35.10;38.50
37560;DHT22;23398;50.928;7.084;2022-08-19T11:56:11;34.90;37.80
37560;DHT22;23398;50.928;7.084;2022-08-19T11:58:37;34.70;38.60
37560;DHT22;23398;50.928;7.084;2022-08-19T12:01:08;34.50;39.00
37560;DHT22;23398;50.928;7.084;2022-08-19T12:03:34;34.80;39.20
37560;DHT22;23398;50.928;7.084;2022-08-19T12:06:12;34.20;39.20
37560;DHT22;23398;50.928;7.084;2022-08-19T12:08:39;34.10;39.30
37560;DHT22;23398;50.928;7.084;2022-08-19T12:11:05;34.00;39.60
37560;DHT22;23398;50.928;7.084;2022-08-19T12:13:34;33.80;39.40
37560;DHT22;23398;50.928;7.084;2022-08-19T12:16:00;33.70;40.00
37560;DHT22;23398;50.928;7.084;2022-08-19T12:18:32;33.50;40.20
37560;DHT22;23398;50.928;7.084;2022-08-19T12:20:57;33.40;40.20
37560;DHT22;23398;50.928;7.084;2022-08-19T12:23:25;33.20;41.00
37560;DHT22;23398;50.928;7.084;2022-08-19T12:25:51;33.10;41.00
37560;DHT22;23398;50.928;7.084;2022-08-19T12:28:22;33.10;41.10
37560;DHT22;23398;50.928;7.084;2022-08-19T12:30:48;33.10;41.20
37560;DHT22;23398;50.928;7.084;2022-08-19T12:33:16;32.90;40.90
37560;DHT22;23398;50.928;7.084;2022-08-19T12:35:43;32.80;40.90
37560;DHT22;23398;50.928;7.084;2022-08-19T12:38:10;32.80;41.00
37560;DHT22;23398;50.928;7.084;2022-08-19T12:40:36;32.70;41.40
37560;DHT22;23398;50.928;7.084;2022-08-19T12:43:02;32.70;41.60
37560;DHT22;23398;50.928;7.084;2022-08-19T12:45:28;32.60;41.50
37560;DHT22;23398;50.928;7.084;2022-08-19T12:47:54;32.60;41.50
37560;DHT22;23398;50.928;7.084;2022-08-19T12:50:20;32.70;41.10
37560;DHT22;23398;50.928;7.084;2022-08-19T12:52:46;32.70;40.90
37560;DHT22;23398;50.928;7.084;2022-08-19T12:55:12;32.70;40.80
37560;DHT22;23398;50.928;7.084;2022-08-19T12:57:38;32.70;40.90
37560;DHT22;23398;50.928;7.084;2022-08-19T13:00:10;32.60;41.10
37560;DHT22;23398;50.928;7.084;2022-08-19T13:02:42;32.60;40.90
37560;DHT22;23398;50.928;7.084;2022-08-19T13:05:13;32.60;40.80
37560;DHT22;23398;50.928;7.084;2022-08-19T13:07:40;32.60;40.70
37560;DHT22;23398;50.928;7.084;2022-08-19T13:10:07;32.60;41.00
37560;DHT22;23398;50.928;7.084;2022-08-19T13:12:34;32.50;41.30
37560;DHT22;23398;50.928;7.084;2022-08-19T13:14:59;32.50;41.60
37560;DHT22;23398;50.928;7.084;2022-08-19T13:17:25;32.50;41.60
37560;DHT22;23398;50.928;7.084;2022-08-19T13:19:51;32.40;41.20
37560;DHT22;23398;50.928;7.084;2022-08-19T13:22:17;32.40;41.20
37560;DHT22;23398;50.928;7.084;2022-08-19T13:24:42;32.40;41.30
37560;DHT22;23398;50.928;7.084;2022-08-19T13:27:08;32.40;41.10
37560;DHT22;23398;50.928;7.084;2022-08-19T13:29:34;32.30;41.40
37560;DHT22;23398;50.928;7.084;2022-08-19T13:32:18;32.40;41.60
37560;DHT22;23398;50.928;7.084;2022-08-19T13:35:17;32.40;41.70
37560;DHT22;23398;50.928;7.084;2022-08-19T13:37:43;32.40;41.30
37560;DHT22;23398;50.928;7.084;2022-08-19T13:40:14;32.40;41.10
37560;DHT22;23398;50.928;7.084;2022-08-19T13:42:43;32.50;41.40
37560;DHT22;23398;50.928;7.084;2022-08-19T13:45:13;32.50;41.10
37560;DHT22;23398;50.928;7.084;2022-08-19T13:47:41;32.40;41.20
37560;DHT22;23398;50.928;7.084;2022-08-19T13:50:11;32.40;41.40
37560;DHT22;23398;50.928;7.084;2022-08-19T13:52:38;32.30;41.30
37560;DHT22;23398;50.928;7.084;2022-08-19T13:55:04;32.10;40.70
37560;DHT22;23398;50.928;7.084;2022-08-19T13:57:30;32.10;41.00
37560;DHT22;23398;50.928;7.084;2022-08-19T13:59:58;32.00;41.30
37560;DHT22;23398;50.928;7.084;2022-08-19T14:02:24;31.90;41.40
37560;DHT22;23398;50.928;7.084;2022-08-19T14:04:51;31.80;40.70
37560;DHT22;23398;50.928;7.084;2022-08-19T14:07:17;31.70;40.80
37560;DHT22;23398;50.928;7.084;2022-08-19T14:09:42;31.70;40.80
37560;DHT22;23398;50.928;7.084;2022-08-19T14:12:08;31.60;41.00
37560;DHT22;23398;50.928;7.084;2022-08-19T14:14:38;31.50;40.80
37560;DHT22;23398;50.928;7.084;2022-08-19T14:17:07;31.50;40.20
37560;DHT22;23398;50.928;7.084;2022-08-19T14:19:33;31.40;40.70
37560;DHT22;23398;50.928;7.084;2022-08-19T14:21:59;31.30;40.90
37560;DHT22;23398;50.928;7.084;2022-08-19T14:24:25;31.30;41.00
37560;DHT22;23398;50.928;7.084;2022-08-19T14:26:50;31.20;41.10
37560;DHT22;23398;50.928;7.084;2022-08-19T14:29:16;31.20;41.30
37560;DHT22;23398;50.928;7.084;2022-08-19T14:31:41;31.10;41.20
37560;DHT22;23398;50.928;7.084;2022-08-19T14:34:09;31.10;41.50
37560;DHT22;23398;50.928;7.084;2022-08-19T14:36:36;31.10;41.50
37560;DHT22;23398;50.928;7.084;2022-08-19T14:39:03;31.10;41.30
37560;DHT22;23398;50.928;7.084;2022-08-19T14:41:29;31.00;41.80
37560;DHT22;23398;50.928;7.084;2022-08-19T14:43:56;31.00;42.00
37560;DHT22;23398;50.928;7.084;2022-08-19T14:46:24;31.00;42.20
37560;DHT22;23398;50.928;7.084;2022-08-19T14:48:51;31.00;41.70
37560;DHT22;23398;50.928;7.084;2022-08-19T14:51:18;31.00;41.40
37560;DHT22;23398;50.928;7.084;2022-08-19T14:53:44;31.00;41.70
37560;DHT22;23398;50.928;7.084;2022-08-19T14:56:12;31.00;41.70
37560;DHT22;23398;50.928;7.084;2022-08-19T14:58:40;31.00;41.80
37560;DHT22;23398;50.928;7.084;2022-08-19T15:01:07;31.00;42.00
37560;DHT22;23398;50.928;7.084;2022-08-19T15:03:33;31.00;41.80
37560;DHT22;23398;50.928;7.084;2022-08-19T15:06:00;31.00;42.20
37560;DHT22;23398;50.928;7.084;2022-08-19T15:08:27;31.00;42.10
37560;DHT22;23398;50.928;7.084;2022-08-19T15:10:54;31.00;42.10
37560;DHT22;23398;50.928;7.084;2022-08-19T15:13:19;30.90;42.70
37560;DHT22;23398;50.928;7.084;2022-08-19T15:15:47;30.90;42.70
37560;DHT22;23398;50.928;7.084;2022-08-19T15:18:13;31.00;42.30
37560;DHT22;23398;50.928;7.084;2022-08-19T15:20:38;31.00;42.30
37560;DHT22;23398;50.928;7.084;2022-08-19T15:23:04;31.10;42.50
37560;DHT22;23398;50.928;7.084;2022-08-19T15:25:30;31.20;41.50
37560;DHT22;23398;50.928;7.084;2022-08-19T15:27:56;31.20;41.70
37560;DHT22;23398;50.928;7.084;2022-08-19T15:30:25;31.30;41.30
37560;DHT22;23398;50.928;7.084;2022-08-19T15:32:52;31.30;41.30
37560;DHT22;23398;50.928;7.084;2022-08-19T15:35:19;31.40;41.50
37560;DHT22;23398;50.928;7.084;2022-08-19T15:37:49;31.40;41.10
37560;DHT22;23398;50.928;7.084;2022-08-19T15:40:15;31.40;41.20
37560;DHT22;23398;50.928;7.084;2022-08-19T15:42:41;31.30;40.90
37560;DHT22;23398;50.928;7.084;2022-08-19T15:45:09;31.30;41.10
37560;DHT22;23398;50.928;7.084;2022-08-19T15:47:36;31.30;40.20
37560;DHT22;23398;50.928;7.084;2022-08-19T15:50:09;31.30;40.00
37560;DHT22;23398;50.928;7.084;2022-08-19T15:52:58;31.20;40.00